CheckWX is a tool to help pilots better visualize weather data.  It is not intended as a substitute for an official pre-flight weather briefing.

17:35:19 UTC

KLVK METAR
Livermore Municipal Airport
Livermore, California, USA
Current

42 mins ago

KLVK 071653Z VRB06KT 10SM SCT065 16/11 A2998 RMK AO2 SLP149 T01610111
Observed
Dec-7 @ 16:53 UTC
Wind
  • Variable at 6 KTS
Visibility
10 SM
Flight Rules
VFR
Cloud Levels
  • Scattered at 6,500' AGL
Temperature
16°C / 61°F
Dewpoint
11°C / 52°F
Humidity
72%
Altimeter
29.98" Hg
Pressure
1015.22 hPa
Previous

2 hours ago

KLVK 071553Z 23005KT 10SM CLR 14/11 A2996 RMK AO2 SLP144 T01440106
Observed
Dec-7 @ 15:53 UTC
Wind
  • 230° at 5 KTS
Visibility
10 SM
Flight Rules
VFR
Cloud Levels
  • Clear skies
Temperature
14°C / 57°F
Dewpoint
11°C / 52°F
Humidity
82%
Altimeter
29.96" Hg
Pressure
1014.52 hPa
Previous

3 hours ago

KLVK 071453Z VRB03KT 10SM SCT065 14/11 A2996 RMK AO2 SLP142 60000 T01390106 53004
Observed
Dec-7 @ 14:53 UTC
Wind
  • Variable at 3 KTS
Visibility
10 SM
Flight Rules
VFR
Cloud Levels
  • Scattered at 6,500' AGL
Temperature
14°C / 57°F
Dewpoint
11°C / 52°F
Humidity
82%
Altimeter
29.96" Hg
Pressure
1014.52 hPa